Time;durP1;ratioP1;P1;durP2;ratioP2;P2;SDS_P1;SDS_P2;PMS_P1;PMS_P2;Temp;Humidity;BMP_temperature;BMP_pressure;BME280_temperature;BME280_humidity;BME280_pressure;Samples;Min_cycle;Max_cycle;Signal;HPM_P1;HPM_P2
2021/09/19 00:01:33;;;;;;;4.00;2.37;;;;;;;10.44;91.36;100972.38;5001700;28;20209;-74
2021/09/19 00:03:59;;;;;;;3.57;2.30;;;;;;;10.42;92.31;100975.00;4999834;28;20221;-74
2021/09/19 00:06:26;;;;;;;3.27;2.23;;;;;;;10.39;92.51;100980.28;5003466;28;20759;-74
2021/09/19 00:08:54;;;;;;;4.53;2.63;;;;;;;10.42;94.68;100968.94;4998642;28;20213;-75
2021/09/19 00:11:21;;;;;;;3.13;2.43;;;;;;;10.36;91.92;100975.16;5007183;28;20211;-74
2021/09/19 00:13:48;;;;;;;3.90;2.43;;;;;;;10.36;92.27;100974.28;5003456;28;20224;-75
2021/09/19 00:16:14;;;;;;;2.90;2.10;;;;;;;10.37;94.90;100962.97;5003171;28;20706;-75
2021/09/19 00:18:40;;;;;;;7.27;2.40;;;;;;;10.34;94.11;100961.28;5004696;28;20247;-74
2021/09/19 00:21:07;;;;;;;3.07;2.20;;;;;;;10.34;95.17;100963.03;5008258;28;20707;-75
2021/09/19 00:23:33;;;;;;;3.13;2.40;;;;;;;10.27;91.59;100972.66;5002151;28;20242;-75
2021/09/19 00:26:01;;;;;;;3.87;2.37;;;;;;;10.36;97.04;100961.22;5002723;28;20315;-74
2021/09/19 00:28:27;;;;;;;2.80;2.20;;;;;;;10.34;97.45;100955.19;5003860;28;20311;-75
2021/09/19 00:30:54;;;;;;;2.47;2.10;;;;;;;10.32;96.67;100960.44;4993901;28;20283;-74
2021/09/19 00:33:21;;;;;;;2.40;2.17;;;;;;;10.24;92.78;100970.16;5004838;28;20204;-75
2021/09/19 00:35:48;;;;;;;2.80;2.37;;;;;;;10.22;92.01;100966.72;4996213;28;20262;-75
2021/09/19 00:38:14;;;;;;;4.00;2.83;;;;;;;10.20;92.34;100968.47;5004330;28;20215;-75
2021/09/19 00:40:41;;;;;;;2.60;2.07;;;;;;;10.16;91.20;100965.06;5001382;28;21373;-74
2021/09/19 00:43:09;;;;;;;3.27;1.93;;;;;;;10.19;93.40;100970.22;4999497;28;20695;-74
2021/09/19 00:45:35;;;;;;;4.13;1.97;;;;;;;10.16;93.41;100967.66;4997944;28;20777;-75
2021/09/19 00:48:01;;;;;;;3.07;2.30;;;;;;;10.12;92.11;100970.38;4981106;28;20636;-75
2021/09/19 00:50:28;;;;;;;3.70;2.33;;;;;;;10.08;92.17;100966.97;5003287;28;20217;-74
2021/09/19 00:52:54;;;;;;;2.60;2.33;;;;;;;10.04;91.14;100962.69;5003482;28;20679;-74
2021/09/19 00:55:21;;;;;;;4.13;2.00;;;;;;;9.98;90.27;100971.47;5002033;28;20208;-74
2021/09/19 00:57:50;;;;;;;3.10;2.23;;;;;;;9.94;89.37;100964.63;4996601;28;20242;-75
2021/09/19 01:00:21;;;;;;;3.67;2.70;;;;;;;9.91;89.87;100964.66;5002215;28;20204;-75
2021/09/19 01:02:48;;;;;;;2.17;1.80;;;;;;;9.88;90.54;100959.50;4998607;28;20206;-74
2021/09/19 01:05:17;;;;;;;2.80;2.00;;;;;;;9.86;93.37;100953.47;5002300;28;20207;-75
2021/09/19 01:07:45;;;;;;;8.53;2.97;;;;;;;9.74;91.92;100962.34;5002286;28;20248;-74
2021/09/19 01:10:14;;;;;;;3.03;2.20;;;;;;;9.68;92.12;100961.63;5001472;28;20201;-75
2021/09/19 01:12:41;;;;;;;3.10;2.13;;;;;;;9.76;99.11;100949.31;5005413;28;20263;-75
2021/09/19 01:15:09;;;;;;;2.87;2.40;;;;;;;9.63;96.46;100949.50;5002238;28;20240;-75
2021/09/19 01:17:38;;;;;;;5.50;2.10;;;;;;;9.58;96.39;100953.09;5002527;28;20231;-75
2021/09/19 01:20:09;;;;;;;3.00;2.43;;;;;;;9.46;91.44;100967.16;5000747;28;20231;-75
2021/09/19 01:22:38;;;;;;;4.67;2.50;;;;;;;9.43;91.83;100959.41;5003753;28;20339;-75
2021/09/19 01:25:08;;;;;;;4.07;2.20;;;;;;;9.39;91.47;100966.41;5000807;28;20296;-75
2021/09/19 01:27:35;;;;;;;2.87;1.93;;;;;;;9.47;97.13;100948.91;5000871;28;20244;-75
2021/09/19 01:30:01;;;;;;;2.70;2.17;;;;;;;9.38;92.06;100958.63;5005637;28;20211;-75
2021/09/19 01:32:28;;;;;;;2.70;2.17;;;;;;;9.36;88.94;100963.84;5002921;28;20216;-75
2021/09/19 01:34:54;;;;;;;2.37;1.80;;;;;;;9.41;89.91;100969.84;4994037;28;20208;-75
2021/09/19 01:37:20;;;;;;;3.20;2.33;;;;;;;9.42;88.89;100971.53;5002118;28;20252;-75
2021/09/19 01:39:47;;;;;;;4.23;2.70;;;;;;;9.52;93.23;100959.25;5000836;28;20204;-75
2021/09/19 01:42:15;;;;;;;3.00;2.30;;;;;;;9.45;87.84;100968.91;4996160;28;20206;-75
2021/09/19 01:44:42;;;;;;;3.40;2.37;;;;;;;9.51;89.58;100956.69;5000168;28;20204;-75
2021/09/19 01:47:08;;;;;;;3.63;2.10;;;;;;;9.55;90.30;100959.22;5002730;28;20255;-75
2021/09/19 01:49:34;;;;;;;3.60;2.30;;;;;;;9.55;90.03;100955.72;5002616;28;20920;-75
2021/09/19 01:52:01;;;;;;;3.40;2.50;;;;;;;9.57;92.41;100952.25;5000479;28;20717;-74
2021/09/19 01:54:28;;;;;;;4.87;2.43;;;;;;;9.64;96.20;100946.03;5001823;28;20738;-75
2021/09/19 01:56:54;;;;;;;3.27;2.40;;;;;;;9.66;95.02;100944.25;4990903;28;20670;-74
2021/09/19 01:59:22;;;;;;;4.30;2.57;;;;;;;9.78;100.00;100945.81;5003212;28;20211;-74
2021/09/19 02:01:48;;;;;;;3.67;2.30;;;;;;;9.78;100.00;100939.72;4998029;28;20207;-75
2021/09/19 02:04:15;;;;;;;2.83;2.30;;;;;;;9.79;100.00;100944.91;4998874;28;20210;-75
2021/09/19 02:06:41;;;;;;;3.17;2.27;;;;;;;9.83;100.00;100940.50;4998662;28;20225;-75
2021/09/19 02:09:08;;;;;;;4.60;2.63;;;;;;;9.88;100.00;100937.81;4998640;28;20216;-75
2021/09/19 02:11:34;;;;;;;3.93;2.20;;;;;;;9.96;100.00;100939.38;4996200;28;20215;-75
2021/09/19 02:14:00;;;;;;;2.93;2.43;;;;;;;9.93;100.00;100934.22;4996529;28;20534;-74
2021/09/19 02:16:28;;;;;;;3.03;2.50;;;;;;;9.89;100.00;100936.94;4997318;28;20702;-75
2021/09/19 02:18:56;;;;;;;2.90;2.40;;;;;;;9.92;100.00;100931.66;4999630;28;20209;-75
2021/09/19 02:21:23;;;;;;;4.30;2.70;;;;;;;9.99;100.00;100920.22;4995102;28;20204;-75
2021/09/19 02:23:49;;;;;;;2.90;2.27;;;;;;;9.94;100.00;100922.94;5001338;28;20577;-75
2021/09/19 02:26:16;;;;;;;2.93;2.50;;;;;;;9.92;100.00;100916.91;5001575;28;20220;-75
2021/09/19 02:28:42;;;;;;;3.13;2.40;;;;;;;9.83;100.00;100917.06;4998036;28;20606;-74
2021/09/19 02:31:09;;;;;;;3.77;2.67;;;;;;;10.00;100.00;100916.75;4999626;28;20205;-75
2021/09/19 02:33:36;;;;;;;4.53;2.40;;;;;;;10.02;100.00;100921.03;5001885;28;20215;-75
2021/09/19 02:36:04;;;;;;;2.97;2.10;;;;;;;9.94;100.00;100914.28;4998811;28;20236;-74
2021/09/19 02:38:30;;;;;;;2.87;2.20;;;;;;;9.90;100.00;100910.84;4995509;28;20204;-75
2021/09/19 02:40:57;;;;;;;5.73;2.80;;;;;;;9.91;100.00;100917.78;4999428;28;20239;-75
2021/09/19 02:43:24;;;;;;;3.73;2.73;;;;;;;10.00;100.00;100915.00;4992726;28;20207;-75
2021/09/19 02:45:51;;;;;;;3.70;2.80;;;;;;;9.93;100.00;100915.16;4997061;28;20217;-75
2021/09/19 02:48:18;;;;;;;3.07;2.33;;;;;;;9.98;100.00;100916.78;5003801;28;20231;-75
2021/09/19 02:50:45;;;;;;;3.33;2.40;;;;;;;10.04;100.00;100918.41;5002180;28;20235;-75
2021/09/19 02:53:12;;;;;;;4.83;2.50;;;;;;;10.13;100.00;100912.16;4995045;28;20687;-75
2021/09/19 02:55:38;;;;;;;3.80;2.50;;;;;;;10.08;100.00;100919.19;5000603;28;20291;-75
2021/09/19 02:58:05;;;;;;;3.93;2.50;;;;;;;9.95;100.00;100929.00;4998730;28;20211;-75
2021/09/19 03:00:32;;;;;;;4.00;2.70;;;;;;;9.99;100.00;100921.09;4998797;28;20227;-75
2021/09/19 03:02:58;;;;;;;3.23;2.60;;;;;;;9.92;100.00;100916.03;4997893;28;20204;-75
2021/09/19 03:05:25;;;;;;;4.30;2.80;;;;;;;9.93;100.00;100920.34;5001093;28;20212;-75
2021/09/19 03:07:55;;;;;;;3.20;2.70;;;;;;;9.94;100.00;100920.34;5001818;28;20636;-75
2021/09/19 03:10:22;;;;;;;3.00;2.60;;;;;;;9.93;100.00;100920.34;5005634;28;20209;-74
2021/09/19 03:12:49;;;;;;;4.43;2.30;;;;;;;9.92;100.00;100919.50;5001100;28;20235;-75
2021/09/19 03:15:16;;;;;;;3.77;2.77;;;;;;;9.92;100.00;100916.03;5009753;28;20209;-75
2021/09/19 03:17:42;;;;;;;4.27;2.53;;;;;;;9.97;100.00;100915.06;5004113;28;20228;-74
2021/09/19 03:20:12;;;;;;;2.90;2.40;;;;;;;9.97;100.00;100916.81;5001041;28;20216;-74
2021/09/19 03:22:39;;;;;;;9.03;2.73;;;;;;;9.89;100.00;100916.97;4988412;28;20924;-75
2021/09/19 03:25:09;;;;;;;7.57;2.37;;;;;;;9.95;100.00;100913.38;4996210;28;20210;-75
2021/09/19 03:27:36;;;;;;;3.13;2.30;;;;;;;9.87;100.00;100918.72;5004770;28;20227;-75
2021/09/19 03:30:02;;;;;;;2.90;2.27;;;;;;;9.90;100.00;100920.41;4999663;28;20698;-75
2021/09/19 03:32:29;;;;;;;4.57;2.63;;;;;;;9.92;100.00;100919.50;5005208;28;20252;-75
2021/09/19 03:34:55;;;;;;;5.70;2.57;;;;;;;9.85;97.98;100925.72;5002529;28;20208;-75
2021/09/19 03:37:22;;;;;;;5.30;2.63;;;;;;;9.91;100.00;100919.53;5005854;28;20232;-75
2021/09/19 03:39:48;;;;;;;2.97;2.50;;;;;;;9.88;100.00;100917.81;5002007;28;20209;-75
2021/09/19 03:42:16;;;;;;;4.40;3.00;;;;;;;9.98;100.00;100913.31;5000016;28;20288;-75
2021/09/19 03:44:42;;;;;;;3.47;2.20;;;;;;;9.95;100.00;100919.44;5001727;28;20212;-75
2021/09/19 03:47:08;;;;;;;4.23;2.80;;;;;;;10.01;100.00;100913.28;5003720;28;20224;-74
2021/09/19 03:49:35;;;;;;;3.70;2.77;;;;;;;10.04;100.00;100914.06;5003085;28;20218;-75
2021/09/19 03:52:02;;;;;;;5.27;2.87;;;;;;;10.02;100.00;100928.00;5002559;28;20200;-75
2021/09/19 03:54:28;;;;;;;4.07;2.90;;;;;;;9.94;100.00;100927.31;5002230;28;20307;-75
2021/09/19 03:56:55;;;;;;;4.20;2.70;;;;;;;9.90;100.00;100925.63;5004812;28;20235;-75
2021/09/19 03:59:22;;;;;;;3.23;2.57;;;;;;;9.92;100.00;100927.31;5002012;28;20205;-75
2021/09/19 04:01:49;;;;;;;3.63;2.80;;;;;;;9.91;100.00;100925.59;5000256;28;20209;-75
2021/09/19 04:04:15;;;;;;;4.33;2.73;;;;;;;9.85;100.00;100926.56;4997467;28;20288;-75
2021/09/19 04:06:41;;;;;;;3.33;2.80;;;;;;;9.84;100.00;100929.19;4983823;28;20227;-75
2021/09/19 04:09:08;;;;;;;4.33;2.67;;;;;;;9.92;100.00;100924.72;5002009;28;20228;-75
2021/09/19 04:11:34;;;;;;;3.67;2.70;;;;;;;9.91;100.00;100920.38;4984646;28;20201;-75
2021/09/19 04:14:00;;;;;;;3.77;2.97;;;;;;;9.90;100.00;100929.06;4993739;28;20208;-75
2021/09/19 04:16:28;;;;;;;3.27;2.67;;;;;;;9.81;100.00;100926.66;5001996;28;20228;-75
2021/09/19 04:18:54;;;;;;;4.53;3.00;;;;;;;9.86;100.00;100928.28;5001955;28;20769;-74
2021/09/19 04:21:21;;;;;;;3.00;2.60;;;;;;;9.91;100.00;100933.41;5001787;28;20696;-75
2021/09/19 04:23:47;;;;;;;5.83;2.90;;;;;;;9.80;100.00;100935.34;4999465;28;20601;-75
2021/09/19 04:26:14;;;;;;;3.20;2.47;;;;;;;9.74;100.00;100940.66;5002035;28;20233;-74
2021/09/19 04:28:40;;;;;;;4.03;2.47;;;;;;;9.83;100.00;100938.75;5005529;28;20310;-75
2021/09/19 04:31:06;;;;;;;3.70;2.83;;;;;;;9.85;100.00;100934.38;5001674;28;20213;-75
2021/09/19 04:33:34;;;;;;;3.77;2.80;;;;;;;9.85;100.00;100944.81;5001417;28;20725;-75
2021/09/19 04:36:00;;;;;;;6.67;2.90;;;;;;;9.79;100.00;100936.22;5002892;28;20749;-75
2021/09/19 04:38:27;;;;;;;4.47;2.83;;;;;;;9.71;100.00;100941.59;5004814;28;20697;-75
2021/09/19 04:40:53;;;;;;;3.77;2.60;;;;;;;9.75;100.00;100945.84;5001972;28;20235;-74
2021/09/19 04:43:19;;;;;;;4.67;2.67;;;;;;;9.79;100.00;100944.91;4999471;28;20394;-75
2021/09/19 04:45:46;;;;;;;3.33;2.60;;;;;;;9.86;100.00;100936.09;5002528;28;20227;-75
2021/09/19 04:48:12;;;;;;;4.70;2.90;;;;;;;9.88;100.00;100937.81;5002881;28;20738;-75
2021/09/19 04:50:40;;;;;;;4.90;2.77;;;;;;;9.80;100.00;100944.03;5003853;28;20212;-75
2021/09/19 04:53:06;;;;;;;3.43;2.70;;;;;;;9.87;100.00;100942.19;5002158;28;20583;-75
2021/09/19 04:55:33;;;;;;;3.87;2.77;;;;;;;9.82;100.00;100950.06;5000284;28;20209;-75
2021/09/19 04:57:59;;;;;;;4.90;2.80;;;;;;;9.82;100.00;100946.59;5002195;28;20196;-75
2021/09/19 05:00:25;;;;;;;4.63;2.93;;;;;;;9.84;100.00;100939.63;4999074;28;20209;-75
2021/09/19 05:02:52;;;;;;;3.83;3.10;;;;;;;9.82;100.00;100944.00;5000964;28;20206;-74
2021/09/19 05:05:18;;;;;;;3.10;2.73;;;;;;;9.88;100.00;100941.28;5004085;28;20213;-75
2021/09/19 05:07:46;;;;;;;3.97;2.90;;;;;;;9.95;100.00;100934.22;4987502;28;20326;-74
2021/09/19 05:10:13;;;;;;;3.90;2.70;;;;;;;9.97;100.00;100940.25;4995022;28;20267;-74
2021/09/19 05:12:39;;;;;;;3.70;2.90;;;;;;;9.89;100.00;100950.81;4999265;28;20679;-75
2021/09/19 05:15:07;;;;;;;3.73;3.00;;;;;;;9.95;100.00;100942.88;4995741;28;20743;-75
2021/09/19 05:17:34;;;;;;;8.83;2.90;;;;;;;9.96;100.00;100942.00;5000296;28;20216;-75
2021/09/19 05:20:00;;;;;;;3.43;2.30;;;;;;;9.93;100.00;100942.03;5000571;28;20223;-75
2021/09/19 05:22:26;;;;;;;5.83;3.07;;;;;;;9.92;100.00;100942.94;5002717;28;20211;-75
2021/09/19 05:24:54;;;;;;;3.97;2.73;;;;;;;9.88;100.00;100949.09;5000319;28;20220;-74
2021/09/19 05:27:20;;;;;;;2.70;2.30;;;;;;;9.97;100.00;100941.13;4995809;28;20686;-75
2021/09/19 05:29:47;;;;;;;4.33;2.67;;;;;;;9.93;100.00;100949.88;5001684;28;20208;-75
2021/09/19 05:32:13;;;;;;;5.30;3.07;;;;;;;9.99;100.00;100946.28;5003141;28;20584;-75
2021/09/19 05:34:40;;;;;;;5.13;3.07;;;;;;;9.93;100.00;100951.63;5000747;28;20201;-75
2021/09/19 05:37:07;;;;;;;3.97;3.00;;;;;;;10.05;100.00;100952.25;5001712;28;20873;-75
2021/09/19 05:39:33;;;;;;;3.93;2.63;;;;;;;10.01;100.00;100950.59;5002490;28;20252;-75
2021/09/19 05:42:01;;;;;;;4.03;3.00;;;;;;;9.97;100.00;100954.16;4998908;28;20343;-75
2021/09/19 05:44:27;;;;;;;4.47;3.17;;;;;;;9.96;100.00;100944.59;5002753;28;20658;-75
2021/09/19 05:46:54;;;;;;;3.30;2.77;;;;;;;10.05;100.00;100951.38;4995149;28;20232;-75
2021/09/19 05:49:20;;;;;;;5.20;3.17;;;;;;;10.02;100.00;100949.69;4997596;28;20236;-75
2021/09/19 05:51:47;;;;;;;3.40;2.30;;;;;;;10.02;100.00;100957.50;4999046;28;20205;-75
2021/09/19 05:54:13;;;;;;;5.33;2.67;;;;;;;10.12;100.00;100957.34;4995902;28;20215;-74
2021/09/19 05:56:39;;;;;;;3.33;2.73;;;;;;;10.13;100.00;100956.44;4999258;28;20558;-75
2021/09/19 05:59:07;;;;;;;5.10;3.00;;;;;;;10.14;100.00;100955.56;5003004;28;20207;-74
2021/09/19 06:01:33;;;;;;;5.27;3.13;;;;;;;10.23;100.00;100956.22;4995995;28;20611;-75
2021/09/19 06:04:00;;;;;;;4.57;3.17;;;;;;;10.22;100.00;100957.13;4998176;28;20209;-75
2021/09/19 06:06:26;;;;;;;3.70;2.80;;;;;;;10.27;100.00;100950.97;5000689;28;20229;-76
2021/09/19 06:08:52;;;;;;;2.97;2.50;;;;;;;10.23;100.00;100951.03;4998719;28;20228;-74
2021/09/19 06:11:19;;;;;;;4.53;3.43;;;;;;;10.30;100.00;100945.72;5001298;28;20205;-75
2021/09/19 06:13:45;;;;;;;6.17;2.87;;;;;;;10.15;98.04;100955.53;4997027;28;20201;-76
2021/09/19 06:16:13;;;;;;;3.50;2.73;;;;;;;10.27;100.00;100951.81;4998895;28;20217;-75
2021/09/19 06:18:39;;;;;;;4.10;3.10;;;;;;;10.22;99.42;100946.72;4997961;28;20208;-75
2021/09/19 06:21:05;;;;;;;3.57;2.53;;;;;;;10.21;98.98;100949.34;4999590;28;20216;-75
2021/09/19 06:23:32;;;;;;;4.63;3.10;;;;;;;10.24;99.66;100946.69;5000733;28;20602;-74
2021/09/19 06:25:59;;;;;;;3.40;2.60;;;;;;;10.24;98.92;100941.47;4993790;28;20217;-75
2021/09/19 06:28:26;;;;;;;3.43;2.80;;;;;;;10.31;100.00;100944.84;4997056;28;20230;-75
2021/09/19 06:30:52;;;;;;;4.50;2.73;;;;;;;10.41;100.00;100941.16;4996889;28;20223;-75
2021/09/19 06:33:20;;;;;;;3.83;3.03;;;;;;;10.42;100.00;100956.75;4999905;28;20717;-75
2021/09/19 06:35:47;;;;;;;5.07;2.70;;;;;;;10.43;100.00;100952.44;4997787;28;20305;-75
2021/09/19 06:38:13;;;;;;;4.60;2.73;;;;;;;10.47;100.00;100946.25;5000075;28;20215;-75
2021/09/19 06:40:40;;;;;;;4.47;2.83;;;;;;;10.40;96.56;100952.50;4997663;28;20217;-75
2021/09/19 06:43:06;;;;;;;7.10;3.17;;;;;;;10.45;97.30;100957.59;4996713;28;20729;-75
2021/09/19 06:45:33;;;;;;;4.07;2.67;;;;;;;10.50;98.09;100955.75;4999611;28;20687;-74
2021/09/19 06:47:59;;;;;;;3.47;2.67;;;;;;;10.58;100.00;100952.09;4996889;28;20655;-75
2021/09/19 06:50:27;;;;;;;3.60;2.60;;;;;;;10.64;100.00;100960.69;5002365;28;20214;-75
2021/09/19 06:52:53;;;;;;;3.63;2.90;;;;;;;10.60;97.37;100957.28;4998848;28;20206;-75
2021/09/19 06:55:20;;;;;;;4.03;2.70;;;;;;;10.66;98.14;100969.31;4996915;28;20489;-75
2021/09/19 06:57:47;;;;;;;3.73;2.50;;;;;;;10.67;96.95;100969.28;4994324;28;20345;-76
2021/09/19 07:00:14;;;;;;;5.63;2.80;;;;;;;10.69;95.23;100967.50;4998989;28;20205;-75
2021/09/19 07:02:40;;;;;;;5.43;2.60;;;;;;;10.76;97.76;100958.69;4999558;28;20224;-74
2021/09/19 07:05:08;;;;;;;3.80;2.70;;;;;;;10.87;100.00;100957.56;4998398;28;20221;-75
2021/09/19 07:07:35;;;;;;;3.83;2.80;;;;;;;10.89;99.05;100961.88;4998715;28;20232;-75
2021/09/19 07:10:02;;;;;;;4.70;2.47;;;;;;;10.85;94.85;100973.25;5000139;28;20227;-75
2021/09/19 07:12:28;;;;;;;3.60;2.60;;;;;;;10.88;94.99;100967.97;5000445;28;20971;-75
2021/09/19 07:14:54;;;;;;;5.50;3.00;;;;;;;10.99;96.27;100967.75;4997679;28;20212;-75
2021/09/19 07:17:21;;;;;;;5.07;2.73;;;;;;;11.04;94.55;100965.03;4999605;28;20240;-75
2021/09/19 07:19:47;;;;;;;5.00;3.10;;;;;;;11.12;96.33;100963.97;4997981;28;20210;-75
2021/09/19 07:22:14;;;;;;;3.63;2.57;;;;;;;11.12;94.71;100965.72;5000147;28;20216;-75
2021/09/19 07:24:42;;;;;;;5.90;2.90;;;;;;;11.11;92.71;100964.84;4998144;28;20209;-75
2021/09/19 07:27:08;;;;;;;4.50;2.77;;;;;;;11.16;91.73;100972.59;4998297;28;20317;-75
2021/09/19 07:29:35;;;;;;;8.17;5.63;;;;;;;11.23;92.75;100971.53;5000472;28;20223;-75
2021/09/19 07:32:02;;;;;;;5.20;3.00;;;;;;;11.26;92.20;100973.25;5000007;28;20796;-75
2021/09/19 07:34:29;;;;;;;5.07;2.93;;;;;;;11.33;92.31;100974.81;4999739;28;20213;-74
2021/09/19 07:36:56;;;;;;;5.40;4.13;;;;;;;11.35;90.94;100973.03;4995993;28;20232;-75
2021/09/19 07:39:23;;;;;;;5.37;3.90;;;;;;;11.48;93.71;100968.34;4999098;28;20217;-75
2021/09/19 07:41:53;;;;;;;6.83;5.30;;;;;;;11.52;92.82;100973.47;4998616;28;20212;-75
2021/09/19 07:44:20;;;;;;;5.27;3.90;;;;;;;11.54;90.64;100981.28;4998079;28;20278;-75
2021/09/19 07:46:49;;;;;;;6.90;4.73;;;;;;;11.63;91.00;100975.81;4998826;28;20598;-76
2021/09/19 07:49:16;;;;;;;3.90;2.80;;;;;;;11.64;88.52;100982.72;5002979;28;20236;-75
2021/09/19 07:51:42;;;;;;;8.80;5.80;;;;;;;11.68;88.51;100979.16;4997151;28;20208;-75
2021/09/19 07:54:10;;;;;;;5.60;3.10;;;;;;;11.62;85.81;100981.06;4998444;28;20224;-75
2021/09/19 07:56:36;;;;;;;36.03;27.10;;;;;;;11.72;87.02;100982.56;5004413;28;20224;-75
2021/09/19 07:59:04;;;;;;;3.33;2.73;;;;;;;11.71;85.09;100981.72;5000265;28;20199;-75
2021/09/19 08:01:31;;;;;;;5.90;4.97;;;;;;;11.82;85.14;100980.56;4999401;28;20197;-75
2021/09/19 08:03:57;;;;;;;6.00;4.33;;;;;;;11.95;87.86;100981.16;5002487;28;20547;-75
2021/09/19 08:06:24;;;;;;;5.70;4.83;;;;;;;12.01;84.96;100983.59;5001049;28;20228;-75
2021/09/19 08:08:50;;;;;;;4.00;3.13;;;;;;;12.19;87.29;100977.00;5000489;28;20228;-75
2021/09/19 08:11:17;;;;;;;3.93;3.33;;;;;;;12.29;83.62;100981.97;5004513;28;20213;-75
2021/09/19 08:13:43;;;;;;;4.23;3.80;;;;;;;12.19;79.82;100993.56;5004501;28;20212;-76
2021/09/19 08:16:11;;;;;;;4.30;3.70;;;;;;;12.23;79.92;100992.56;5004678;28;20230;-75
2021/09/19 08:18:38;;;;;;;4.27;3.33;;;;;;;12.47;83.59;100995.41;5002931;28;20219;-75
2021/09/19 08:21:04;;;;;;;4.10;2.80;;;;;;;12.63;81.68;100991.47;5003747;28;20200;-75
2021/09/19 08:23:31;;;;;;;3.13;2.47;;;;;;;12.69;78.50;100996.50;5005433;28;20212;-75
2021/09/19 08:25:57;;;;;;;21.07;8.67;;;;;;;12.81;77.84;101007.53;4997507;28;20758;-75
2021/09/19 08:28:24;;;;;;;6.87;4.03;;;;;;;12.79;77.50;101007.56;4998778;28;20648;-75
2021/09/19 08:30:50;;;;;;;9.40;4.93;;;;;;;12.92;77.27;101015.06;5001619;28;20298;-75
2021/09/19 08:33:18;;;;;;;14.37;8.17;;;;;;;12.96;75.88;101011.44;5001767;28;20705;-75
2021/09/19 08:35:44;;;;;;;5.73;3.77;;;;;;;13.03;76.85;101008.63;4996206;28;20267;-75
2021/09/19 08:38:11;;;;;;;4.27;2.97;;;;;;;13.10;73.98;101013.66;5002968;28;21423;-75
2021/09/19 08:40:37;;;;;;;5.70;3.43;;;;;;;13.28;76.41;101010.47;5002403;28;20212;-75
2021/09/19 08:43:05;;;;;;;4.23;2.63;;;;;;;13.38;77.16;101013.69;4998347;28;20209;-76
2021/09/19 08:45:32;;;;;;;5.50;3.80;;;;;;;13.52;74.95;101000.16;4998758;28;20206;-75
2021/09/19 08:47:58;;;;;;;15.33;10.77;;;;;;;13.57;74.05;101019.19;4996074;28;20205;-75
2021/09/19 08:50:26;;;;;;;3.13;2.50;;;;;;;13.58;70.46;101023.53;5001985;28;20212;-75
2021/09/19 08:52:52;;;;;;;3.70;2.77;;;;;;;13.60;71.87;101012.09;4995102;28;20210;-76
2021/09/19 08:55:19;;;;;;;3.73;3.13;;;;;;;13.67;73.03;101019.75;4999934;28;20207;-75
2021/09/19 08:57:46;;;;;;;3.67;2.50;;;;;;;13.69;72.37;101021.41;5003630;28;20233;-76
2021/09/19 09:00:16;;;;;;;6.83;4.87;;;;;;;13.72;70.00;101021.31;5003644;28;20712;-75
2021/09/19 09:02:51;;;;;;;3.80;3.40;;;;;;;13.68;68.28;101016.22;4997559;28;20207;-76
2021/09/19 09:05:23;;;;;;;3.50;2.40;;;;;;;13.78;66.96;101026.34;5001126;28;20227;-75
2021/09/19 09:07:55;;;;;;;3.37;2.47;;;;;;;13.70;66.22;101030.13;5002667;28;20210;-75
2021/09/19 09:10:38;;;;;;;3.97;2.73;;;;;;;13.57;67.56;101022.66;5000293;28;20280;-75
2021/09/19 09:13:07;;;;;;;3.47;2.60;;;;;;;13.71;68.40;101019.59;4999291;28;20221;-75
2021/09/19 09:15:35;;;;;;;3.80;2.60;;;;;;;13.79;68.25;101022.84;5003843;28;20204;-75
2021/09/19 09:18:04;;;;;;;2.47;2.27;;;;;;;13.71;65.95;101027.47;4999084;28;20570;-75
2021/09/19 09:20:50;;;;;;;3.40;2.40;;;;;;;13.68;66.10;101024.94;5007394;28;20244;-75
2021/09/19 09:23:27;;;;;;;3.17;2.47;;;;;;;13.86;67.61;101020.00;5002092;28;20646;-74
2021/09/19 09:26:20;;;;;;;3.87;2.53;;;;;;;13.86;65.17;101033.09;4998393;28;20234;-75
2021/09/19 09:28:50;;;;;;;3.03;2.30;;;;;;;13.93;63.51;101031.97;5000638;28;20219;-75
2021/09/19 09:31:23;;;;;;;2.93;2.23;;;;;;;14.01;65.37;101035.22;4996426;28;20196;-75
2021/09/19 09:34:05;;;;;;;2.80;2.50;;;;;;;14.27;67.35;101018.56;5000053;28;20211;-75
2021/09/19 09:36:48;;;;;;;2.37;2.10;;;;;;;14.40;64.01;101024.25;4997048;28;20235;-74
2021/09/19 09:39:28;;;;;;;4.00;2.10;;;;;;;14.38;63.67;101024.28;4999045;28;20205;-75
2021/09/19 09:41:57;;;;;;;3.33;2.20;;;;;;;14.45;65.03;101018.84;5001170;28;20203;-74
2021/09/19 09:44:29;;;;;;;3.17;2.47;;;;;;;14.75;68.71;101012.47;5000279;28;20207;-75
2021/09/19 09:46:56;;;;;;;5.20;2.73;;;;;;;14.86;65.50;101016.47;4999519;28;20224;-75
2021/09/19 09:49:23;;;;;;;3.13;2.40;;;;;;;15.09;67.63;101011.22;4997187;28;20725;-74
2021/09/19 09:51:50;;;;;;;2.40;2.17;;;;;;;15.22;62.08;101023.88;4996512;28;20596;-74
2021/09/19 09:54:17;;;;;;;2.50;2.20;;;;;;;15.08;59.90;101030.50;4998031;28;20899;-75
2021/09/19 09:56:47;;;;;;;3.57;2.53;;;;;;;14.95;59.94;101027.50;5001114;28;20228;-75
2021/09/19 09:59:16;;;;;;;4.00;2.40;;;;;;;15.17;60.84;101018.78;4997025;28;20208;-74
2021/09/19 10:01:43;;;;;;;2.80;2.30;;;;;;;15.03;58.74;101029.81;4995788;28;20263;-75
2021/09/19 10:04:09;;;;;;;5.63;2.53;;;;;;;15.20;60.61;101020.47;4995967;28;20586;-75
2021/09/19 10:06:36;;;;;;;5.17;2.57;;;;;;;15.46;62.29;101019.41;4994584;28;20224;-75
2021/09/19 10:09:03;;;;;;;3.60;2.70;;;;;;;15.52;58.98;101025.25;4996436;28;20229;-75
2021/09/19 10:11:29;;;;;;;2.87;2.03;;;;;;;15.47;59.62;101031.63;5000796;28;20200;-75
2021/09/19 10:13:57;;;;;;;2.70;2.33;;;;;;;15.27;58.46;101028.03;5000782;28;20200;-75
2021/09/19 10:16:24;;;;;;;2.97;2.40;;;;;;;15.14;60.62;101030.28;4998988;28;20231;-75
2021/09/19 10:18:51;;;;;;;3.27;1.97;;;;;;;15.19;58.58;101035.34;4992976;28;20214;-74
2021/09/19 10:21:19;;;;;;;2.83;2.03;;;;;;;15.15;58.92;101042.47;4998319;28;20208;-74
2021/09/19 10:23:48;;;;;;;2.67;2.23;;;;;;;15.01;59.76;101030.81;4999928;28;20291;-75
2021/09/19 10:26:22;;;;;;;2.50;1.97;;;;;;;15.04;58.77;101028.03;4997190;28;20238;-74
2021/09/19 10:28:48;;;;;;;4.43;2.13;;;;;;;15.03;57.98;101024.56;4996006;28;20200;-74
2021/09/19 10:31:31;;;;;;;3.17;2.20;;;;;;;14.89;57.59;101030.34;4995508;28;20208;-74
2021/09/19 10:34:01;;;;;;;3.20;2.20;;;;;;;14.98;58.70;101031.75;4999685;28;20209;-74
2021/09/19 10:36:39;;;;;;;2.30;2.03;;;;;;;14.88;58.28;101025.16;4993444;28;20985;-74
2021/09/19 10:39:18;;;;;;;3.23;2.50;;;;;;;14.77;57.96;101023.81;4994118;28;20702;-74
2021/09/19 10:42:19;;;;;;;2.93;2.20;;;;;;;15.01;59.24;101029.03;4996486;28;20283;-74
2021/09/19 10:45:13;;;;;;;3.10;2.50;;;;;;;15.13;59.13;101022.47;4996659;28;20209;-74
2021/09/19 10:47:47;;;;;;;5.63;2.37;;;;;;;15.05;57.90;101028.00;4997263;28;20224;-74
2021/09/19 10:50:21;;;;;;;2.80;2.03;;;;;;;14.95;58.44;101022.25;4997978;28;20224;-74
2021/09/19 10:52:48;;;;;;;3.40;2.30;;;;;;;14.90;57.39;101016.31;4994035;28;20205;-74
2021/09/19 10:55:19;;;;;;;2.40;2.17;;;;;;;14.86;58.81;101014.72;4999331;28;20208;-74
2021/09/19 10:57:54;;;;;;;2.93;2.03;;;;;;;14.94;57.07;101015.28;4995478;28;20259;-74
2021/09/19 11:00:21;;;;;;;3.07;2.00;;;;;;;14.93;57.42;101018.84;5001774;28;20235;-74
2021/09/19 11:03:10;;;;;;;3.63;2.20;;;;;;;14.84;58.10;101008.66;4997224;28;20201;-74
2021/09/19 11:05:39;;;;;;;2.90;2.23;;;;;;;14.78;57.99;101014.16;4998825;28;20704;-74
2021/09/19 11:08:31;;;;;;;5.17;2.40;;;;;;;14.85;58.41;101012.16;4993520;28;20217;-74
2021/09/19 11:11:19;;;;;;;4.00;2.17;;;;;;;14.94;60.03;101012.66;4999089;28;20223;-74
2021/09/19 11:13:48;;;;;;;3.67;2.10;;;;;;;14.99;59.28;101009.84;4993031;28;20232;-74
2021/09/19 11:16:23;;;;;;;3.27;2.70;;;;;;;14.95;61.00;101003.00;4996455;28;20310;-74
2021/09/19 11:18:53;;;;;;;3.47;2.10;;;;;;;14.90;59.67;101005.81;4999581;28;20300;-74
2021/09/19 11:21:30;;;;;;;2.73;2.40;;;;;;;14.86;60.02;101001.59;4999518;28;20667;-74
2021/09/19 11:24:01;;;;;;;2.63;2.20;;;;;;;14.78;59.54;101003.66;5004207;28;20887;-74
2021/09/19 11:26:30;;;;;;;3.63;2.23;;;;;;;14.76;58.66;101008.09;5000674;28;20731;-74
2021/09/19 11:28:59;;;;;;;2.40;1.97;;;;;;;14.82;62.14;100993.91;5001590;28;20204;-74